sensor_id;sensor_type;location;lat;lon;timestamp;P1;durP1;ratioP1;P2;durP2;ratioP2
68951;SDS011;56000;51.146;17.112;2022-12-29T00:00:00;6.70;;;2.90;;
68951;SDS011;56000;51.146;17.112;2022-12-29T00:03:01;8.30;;;3.30;;
68951;SDS011;56000;51.146;17.112;2022-12-29T00:05:34;9.80;;;3.50;;
68951;SDS011;56000;51.146;17.112;2022-12-29T00:08:08;6.90;;;3.30;;
68951;SDS011;56000;51.146;17.112;2022-12-29T00:10:41;6.60;;;3.10;;
68951;SDS011;56000;51.146;17.112;2022-12-29T00:13:14;9.50;;;3.40;;
68951;SDS011;56000;51.146;17.112;2022-12-29T00:16:07;5.90;;;3.10;;
68951;SDS011;56000;51.146;17.112;2022-12-29T00:18:41;5.50;;;3.00;;
68951;SDS011;56000;51.146;17.112;2022-12-29T00:21:16;5.40;;;2.80;;
68951;SDS011;56000;51.146;17.112;2022-12-29T00:24:10;7.80;;;3.30;;
68951;SDS011;56000;51.146;17.112;2022-12-29T00:27:12;5.80;;;3.20;;
68951;SDS011;56000;51.146;17.112;2022-12-29T00:30:04;7.60;;;3.00;;
68951;SDS011;56000;51.146;17.112;2022-12-29T00:32:58;8.10;;;3.00;;
68951;SDS011;56000;51.146;17.112;2022-12-29T00:35:50;4.70;;;2.70;;
68951;SDS011;56000;51.146;17.112;2022-12-29T00:38:27;5.50;;;2.90;;
68951;SDS011;56000;51.146;17.112;2022-12-29T00:41:19;5.20;;;2.50;;
68951;SDS011;56000;51.146;17.112;2022-12-29T00:44:12;5.00;;;2.30;;
68951;SDS011;56000;51.146;17.112;2022-12-29T00:46:46;5.00;;;2.50;;
68951;SDS011;56000;51.146;17.112;2022-12-29T00:49:19;5.40;;;2.50;;
68951;SDS011;56000;51.146;17.112;2022-12-29T00:52:04;4.40;;;2.50;;
68951;SDS011;56000;51.146;17.112;2022-12-29T00:54:39;5.00;;;2.50;;
68951;SDS011;56000;51.146;17.112;2022-12-29T00:57:14;8.40;;;2.40;;
68951;SDS011;56000;51.146;17.112;2022-12-29T00:59:47;4.30;;;2.40;;
68951;SDS011;56000;51.146;17.112;2022-12-29T01:02:21;4.90;;;2.50;;
68951;SDS011;56000;51.146;17.112;2022-12-29T01:04:54;5.20;;;2.50;;
68951;SDS011;56000;51.146;17.112;2022-12-29T01:07:27;6.30;;;2.60;;
68951;SDS011;56000;51.146;17.112;2022-12-29T01:10:04;5.30;;;2.20;;
68951;SDS011;56000;51.146;17.112;2022-12-29T01:12:41;4.10;;;2.10;;
68951;SDS011;56000;51.146;17.112;2022-12-29T01:15:16;3.60;;;2.30;;
68951;SDS011;56000;51.146;17.112;2022-12-29T01:17:50;6.00;;;2.60;;
68951;SDS011;56000;51.146;17.112;2022-12-29T01:20:23;3.50;;;2.30;;
68951;SDS011;56000;51.146;17.112;2022-12-29T01:22:58;6.10;;;2.50;;
68951;SDS011;56000;51.146;17.112;2022-12-29T01:25:31;2.80;;;2.00;;
68951;SDS011;56000;51.146;17.112;2022-12-29T01:28:05;5.30;;;2.30;;
68951;SDS011;56000;51.146;17.112;2022-12-29T01:30:38;5.60;;;2.40;;
68951;SDS011;56000;51.146;17.112;2022-12-29T01:33:12;3.70;;;2.20;;
68951;SDS011;56000;51.146;17.112;2022-12-29T01:35:47;3.10;;;2.20;;
68951;SDS011;56000;51.146;17.112;2022-12-29T01:38:20;6.40;;;2.30;;
68951;SDS011;56000;51.146;17.112;2022-12-29T01:40:53;9.00;;;2.50;;
68951;SDS011;56000;51.146;17.112;2022-12-29T01:43:40;3.10;;;2.00;;
68951;SDS011;56000;51.146;17.112;2022-12-29T01:46:20;4.30;;;2.60;;
68951;SDS011;56000;51.146;17.112;2022-12-29T01:48:57;7.90;;;2.20;;
68951;SDS011;56000;51.146;17.112;2022-12-29T01:51:35;4.80;;;2.00;;
68951;SDS011;56000;51.146;17.112;2022-12-29T01:54:11;5.50;;;2.10;;
68951;SDS011;56000;51.146;17.112;2022-12-29T01:56:48;4.30;;;2.30;;
68951;SDS011;56000;51.146;17.112;2022-12-29T01:59:25;5.20;;;2.60;;
68951;SDS011;56000;51.146;17.112;2022-12-29T02:02:02;3.30;;;2.20;;
68951;SDS011;56000;51.146;17.112;2022-12-29T02:04:38;4.80;;;1.90;;
68951;SDS011;56000;51.146;17.112;2022-12-29T02:07:21;3.10;;;1.90;;
68951;SDS011;56000;51.146;17.112;2022-12-29T02:09:56;5.00;;;2.50;;
68951;SDS011;56000;51.146;17.112;2022-12-29T02:12:32;6.10;;;2.40;;
68951;SDS011;56000;51.146;17.112;2022-12-29T02:15:07;3.50;;;2.10;;
68951;SDS011;56000;51.146;17.112;2022-12-29T02:17:50;4.40;;;2.20;;
68951;SDS011;56000;51.146;17.112;2022-12-29T02:27:50;4.90;;;2.40;;
68951;SDS011;56000;51.146;17.112;2022-12-29T02:30:45;4.70;;;2.30;;
68951;SDS011;56000;51.146;17.112;2022-12-29T02:33:37;5.00;;;2.30;;
68951;SDS011;56000;51.146;17.112;2022-12-29T02:36:23;5.70;;;2.00;;
68951;SDS011;56000;51.146;17.112;2022-12-29T02:39:07;4.80;;;2.50;;
68951;SDS011;56000;51.146;17.112;2022-12-29T02:41:53;4.30;;;2.10;;
68951;SDS011;56000;51.146;17.112;2022-12-29T02:44:36;5.30;;;2.10;;
68951;SDS011;56000;51.146;17.112;2022-12-29T02:47:24;2.70;;;1.80;;
68951;SDS011;56000;51.146;17.112;2022-12-29T02:50:08;2.90;;;2.00;;
68951;SDS011;56000;51.146;17.112;2022-12-29T02:52:49;4.50;;;2.30;;
68951;SDS011;56000;51.146;17.112;2022-12-29T02:55:25;3.40;;;2.00;;
68951;SDS011;56000;51.146;17.112;2022-12-29T02:58:20;4.00;;;2.30;;
68951;SDS011;56000;51.146;17.112;2022-12-29T03:01:01;2.50;;;2.00;;
68951;SDS011;56000;51.146;17.112;2022-12-29T03:03:47;2.90;;;2.10;;
68951;SDS011;56000;51.146;17.112;2022-12-29T03:06:38;4.90;;;2.30;;
68951;SDS011;56000;51.146;17.112;2022-12-29T03:09:29;2.80;;;2.00;;
68951;SDS011;56000;51.146;17.112;2022-12-29T03:12:18;3.30;;;2.10;;
68951;SDS011;56000;51.146;17.112;2022-12-29T03:15:18;4.00;;;2.10;;
68951;SDS011;56000;51.146;17.112;2022-12-29T03:18:19;4.60;;;1.90;;
68951;SDS011;56000;51.146;17.112;2022-12-29T03:20:55;3.10;;;2.00;;
68951;SDS011;56000;51.146;17.112;2022-12-29T03:23:33;3.10;;;2.00;;
68951;SDS011;56000;51.146;17.112;2022-12-29T03:26:11;6.10;;;2.40;;
68951;SDS011;56000;51.146;17.112;2022-12-29T03:28:47;4.50;;;2.00;;
68951;SDS011;56000;51.146;17.112;2022-12-29T03:31:26;3.70;;;2.00;;
68951;SDS011;56000;51.146;17.112;2022-12-29T03:34:00;2.40;;;1.90;;
68951;SDS011;56000;51.146;17.112;2022-12-29T03:36:35;3.00;;;2.20;;
68951;SDS011;56000;51.146;17.112;2022-12-29T03:39:13;5.00;;;2.50;;
68951;SDS011;56000;51.146;17.112;2022-12-29T03:41:48;5.10;;;2.00;;
68951;SDS011;56000;51.146;17.112;2022-12-29T03:44:35;4.00;;;2.10;;
68951;SDS011;56000;51.146;17.112;2022-12-29T03:47:11;3.80;;;2.20;;
68951;SDS011;56000;51.146;17.112;2022-12-29T03:49:46;4.20;;;2.30;;
68951;SDS011;56000;51.146;17.112;2022-12-29T03:52:20;4.30;;;2.30;;
68951;SDS011;56000;51.146;17.112;2022-12-29T03:54:54;3.30;;;2.00;;
68951;SDS011;56000;51.146;17.112;2022-12-29T03:57:27;2.90;;;1.90;;
68951;SDS011;56000;51.146;17.112;2022-12-29T04:00:09;4.80;;;2.50;;
68951;SDS011;56000;51.146;17.112;2022-12-29T04:02:44;3.20;;;2.10;;
68951;SDS011;56000;51.146;17.112;2022-12-29T04:05:22;3.40;;;1.80;;
68951;SDS011;56000;51.146;17.112;2022-12-29T04:07:57;7.40;;;2.10;;
68951;SDS011;56000;51.146;17.112;2022-12-29T04:10:30;4.60;;;2.40;;
68951;SDS011;56000;51.146;17.112;2022-12-29T04:13:05;3.40;;;2.20;;
68951;SDS011;56000;51.146;17.112;2022-12-29T04:15:39;6.60;;;2.70;;
68951;SDS011;56000;51.146;17.112;2022-12-29T04:18:13;4.00;;;2.00;;
68951;SDS011;56000;51.146;17.112;2022-12-29T04:20:47;5.40;;;2.30;;
68951;SDS011;56000;51.146;17.112;2022-12-29T04:23:35;4.40;;;2.00;;
68951;SDS011;56000;51.146;17.112;2022-12-29T04:26:10;3.40;;;1.90;;
68951;SDS011;56000;51.146;17.112;2022-12-29T04:28:59;3.30;;;2.50;;
68951;SDS011;56000;51.146;17.112;2022-12-29T04:31:42;4.50;;;2.20;;
68951;SDS011;56000;51.146;17.112;2022-12-29T04:34:16;2.60;;;2.00;;
68951;SDS011;56000;51.146;17.112;2022-12-29T04:36:50;5.90;;;2.40;;
68951;SDS011;56000;51.146;17.112;2022-12-29T04:39:23;2.00;;;1.70;;
68951;SDS011;56000;51.146;17.112;2022-12-29T04:41:56;6.90;;;2.30;;
68951;SDS011;56000;51.146;17.112;2022-12-29T04:44:29;3.30;;;2.30;;
68951;SDS011;56000;51.146;17.112;2022-12-29T04:47:13;3.10;;;2.00;;
68951;SDS011;56000;51.146;17.112;2022-12-29T04:50:00;4.40;;;2.50;;
68951;SDS011;56000;51.146;17.112;2022-12-29T04:52:46;5.00;;;2.40;;
68951;SDS011;56000;51.146;17.112;2022-12-29T04:55:19;5.20;;;2.10;;
68951;SDS011;56000;51.146;17.112;2022-12-29T04:57:52;3.70;;;2.20;;
68951;SDS011;56000;51.146;17.112;2022-12-29T05:00:26;4.90;;;2.20;;
68951;SDS011;56000;51.146;17.112;2022-12-29T05:03:00;3.40;;;2.20;;
68951;SDS011;56000;51.146;17.112;2022-12-29T05:05:34;4.00;;;2.10;;
68951;SDS011;56000;51.146;17.112;2022-12-29T05:08:07;4.50;;;2.30;;
68951;SDS011;56000;51.146;17.112;2022-12-29T05:10:43;6.10;;;2.60;;
68951;SDS011;56000;51.146;17.112;2022-12-29T05:13:19;5.70;;;2.20;;
68951;SDS011;56000;51.146;17.112;2022-12-29T05:15:53;2.60;;;2.00;;
68951;SDS011;56000;51.146;17.112;2022-12-29T05:18:26;2.90;;;2.10;;
68951;SDS011;56000;51.146;17.112;2022-12-29T05:21:01;4.30;;;2.30;;
68951;SDS011;56000;51.146;17.112;2022-12-29T05:23:35;6.50;;;2.30;;
68951;SDS011;56000;51.146;17.112;2022-12-29T05:26:08;4.50;;;2.30;;
68951;SDS011;56000;51.146;17.112;2022-12-29T05:28:58;3.60;;;2.00;;
68951;SDS011;56000;51.146;17.112;2022-12-29T05:31:31;6.50;;;2.60;;
68951;SDS011;56000;51.146;17.112;2022-12-29T05:34:08;4.10;;;2.40;;
68951;SDS011;56000;51.146;17.112;2022-12-29T05:36:43;5.00;;;2.60;;
68951;SDS011;56000;51.146;17.112;2022-12-29T05:39:17;4.50;;;2.40;;
68951;SDS011;56000;51.146;17.112;2022-12-29T05:41:56;5.10;;;2.40;;
68951;SDS011;56000;51.146;17.112;2022-12-29T05:44:38;5.30;;;2.50;;
68951;SDS011;56000;51.146;17.112;2022-12-29T05:47:24;3.10;;;2.20;;
68951;SDS011;56000;51.146;17.112;2022-12-29T05:50:10;5.30;;;2.30;;
68951;SDS011;56000;51.146;17.112;2022-12-29T05:53:10;4.50;;;1.90;;
68951;SDS011;56000;51.146;17.112;2022-12-29T05:55:45;7.20;;;2.30;;
68951;SDS011;56000;51.146;17.112;2022-12-29T05:58:19;5.40;;;2.20;;
68951;SDS011;56000;51.146;17.112;2022-12-29T06:00:52;6.60;;;2.50;;
68951;SDS011;56000;51.146;17.112;2022-12-29T06:03:26;6.30;;;2.50;;
68951;SDS011;56000;51.146;17.112;2022-12-29T06:05:59;4.70;;;2.10;;
68951;SDS011;56000;51.146;17.112;2022-12-29T06:08:33;4.60;;;2.30;;
68951;SDS011;56000;51.146;17.112;2022-12-29T06:11:06;4.10;;;2.60;;
68951;SDS011;56000;51.146;17.112;2022-12-29T06:13:40;4.40;;;2.60;;
68951;SDS011;56000;51.146;17.112;2022-12-29T06:16:14;4.70;;;2.50;;
68951;SDS011;56000;51.146;17.112;2022-12-29T06:18:47;2.10;;;1.80;;
68951;SDS011;56000;51.146;17.112;2022-12-29T06:21:20;5.70;;;2.70;;
68951;SDS011;56000;51.146;17.112;2022-12-29T06:23:53;4.30;;;2.60;;
68951;SDS011;56000;51.146;17.112;2022-12-29T06:26:27;5.40;;;2.40;;
68951;SDS011;56000;51.146;17.112;2022-12-29T06:29:00;4.40;;;2.40;;
68951;SDS011;56000;51.146;17.112;2022-12-29T06:31:35;3.60;;;2.20;;
68951;SDS011;56000;51.146;17.112;2022-12-29T06:34:08;4.40;;;2.50;;
68951;SDS011;56000;51.146;17.112;2022-12-29T06:36:41;5.00;;;2.40;;
68951;SDS011;56000;51.146;17.112;2022-12-29T06:39:14;6.20;;;2.60;;
68951;SDS011;56000;51.146;17.112;2022-12-29T06:41:59;4.30;;;2.80;;
68951;SDS011;56000;51.146;17.112;2022-12-29T06:44:41;6.90;;;2.70;;
68951;SDS011;56000;51.146;17.112;2022-12-29T06:47:15;3.90;;;2.70;;
68951;SDS011;56000;51.146;17.112;2022-12-29T06:49:48;3.70;;;2.50;;
68951;SDS011;56000;51.146;17.112;2022-12-29T06:52:21;5.30;;;2.50;;
68951;SDS011;56000;51.146;17.112;2022-12-29T06:54:54;5.10;;;2.60;;
68951;SDS011;56000;51.146;17.112;2022-12-29T06:57:28;4.10;;;2.70;;
68951;SDS011;56000;51.146;17.112;2022-12-29T07:00:02;4.40;;;2.90;;
68951;SDS011;56000;51.146;17.112;2022-12-29T07:02:36;4.50;;;2.70;;
68951;SDS011;56000;51.146;17.112;2022-12-29T07:05:10;6.50;;;2.80;;
68951;SDS011;56000;51.146;17.112;2022-12-29T07:07:43;6.70;;;2.90;;
68951;SDS011;56000;51.146;17.112;2022-12-29T07:10:16;9.30;;;3.50;;
68951;SDS011;56000;51.146;17.112;2022-12-29T07:12:49;6.80;;;2.80;;
68951;SDS011;56000;51.146;17.112;2022-12-29T07:15:23;7.00;;;3.00;;
68951;SDS011;56000;51.146;17.112;2022-12-29T07:17:56;5.80;;;3.00;;
68951;SDS011;56000;51.146;17.112;2022-12-29T07:20:29;5.10;;;2.60;;
68951;SDS011;56000;51.146;17.112;2022-12-29T07:23:03;4.10;;;2.70;;
68951;SDS011;56000;51.146;17.112;2022-12-29T07:25:36;5.20;;;2.90;;
68951;SDS011;56000;51.146;17.112;2022-12-29T07:28:11;4.30;;;2.80;;
68951;SDS011;56000;51.146;17.112;2022-12-29T07:30:44;4.80;;;3.00;;
68951;SDS011;56000;51.146;17.112;2022-12-29T07:33:18;7.80;;;3.20;;
68951;SDS011;56000;51.146;17.112;2022-12-29T07:35:52;10.50;;;3.50;;
68951;SDS011;56000;51.146;17.112;2022-12-29T07:38:25;9.00;;;3.80;;
68951;SDS011;56000;51.146;17.112;2022-12-29T07:41:01;5.60;;;3.20;;
68951;SDS011;56000;51.146;17.112;2022-12-29T07:43:34;10.40;;;3.50;;
68951;SDS011;56000;51.146;17.112;2022-12-29T07:46:36;9.40;;;3.20;;
68951;SDS011;56000;51.146;17.112;2022-12-29T07:49:26;5.70;;;2.90;;
68951;SDS011;56000;51.146;17.112;2022-12-29T07:51:59;5.90;;;3.60;;
68951;SDS011;56000;51.146;17.112;2022-12-29T07:54:32;6.40;;;3.10;;
68951;SDS011;56000;51.146;17.112;2022-12-29T07:57:05;6.80;;;3.10;;
68951;SDS011;56000;51.146;17.112;2022-12-29T07:59:38;5.20;;;3.10;;
68951;SDS011;56000;51.146;17.112;2022-12-29T08:02:12;4.90;;;3.20;;
68951;SDS011;56000;51.146;17.112;2022-12-29T08:04:45;5.20;;;3.20;;
68951;SDS011;56000;51.146;17.112;2022-12-29T08:07:18;6.10;;;3.10;;
68951;SDS011;56000;51.146;17.112;2022-12-29T08:09:51;8.30;;;3.60;;
68951;SDS011;56000;51.146;17.112;2022-12-29T08:12:24;9.30;;;4.00;;
68951;SDS011;56000;51.146;17.112;2022-12-29T08:14:57;7.50;;;3.50;;
68951;SDS011;56000;51.146;17.112;2022-12-29T08:17:31;11.00;;;3.80;;
68951;SDS011;56000;51.146;17.112;2022-12-29T08:20:05;4.80;;;3.30;;
68951;SDS011;56000;51.146;17.112;2022-12-29T08:22:39;5.50;;;3.00;;
68951;SDS011;56000;51.146;17.112;2022-12-29T08:25:12;7.30;;;3.60;;
68951;SDS011;56000;51.146;17.112;2022-12-29T08:27:45;9.10;;;3.50;;
68951;SDS011;56000;51.146;17.112;2022-12-29T08:30:19;7.70;;;3.60;;
68951;SDS011;56000;51.146;17.112;2022-12-29T08:32:52;9.80;;;4.40;;
68951;SDS011;56000;51.146;17.112;2022-12-29T08:35:25;6.60;;;3.80;;
68951;SDS011;56000;51.146;17.112;2022-12-29T08:37:59;7.40;;;3.70;;
68951;SDS011;56000;51.146;17.112;2022-12-29T08:40:32;12.40;;;3.90;;
68951;SDS011;56000;51.146;17.112;2022-12-29T08:43:05;10.90;;;3.60;;
68951;SDS011;56000;51.146;17.112;2022-12-29T08:45:40;6.00;;;3.40;;
68951;SDS011;56000;51.146;17.112;2022-12-29T08:48:13;9.00;;;4.10;;
68951;SDS011;56000;51.146;17.112;2022-12-29T08:50:50;8.10;;;3.90;;
68951;SDS011;56000;51.146;17.112;2022-12-29T08:53:23;6.20;;;3.60;;
68951;SDS011;56000;51.146;17.112;2022-12-29T08:56:00;11.30;;;4.50;;
68951;SDS011;56000;51.146;17.112;2022-12-29T08:58:41;11.40;;;4.10;;
68951;SDS011;56000;51.146;17.112;2022-12-29T09:01:14;8.30;;;4.60;;
68951;SDS011;56000;51.146;17.112;2022-12-29T09:03:48;8.00;;;4.30;;
68951;SDS011;56000;51.146;17.112;2022-12-29T09:06:41;9.10;;;4.00;;
68951;SDS011;56000;51.146;17.112;2022-12-29T09:09:15;12.10;;;5.40;;
68951;SDS011;56000;51.146;17.112;2022-12-29T09:11:48;8.40;;;4.00;;
68951;SDS011;56000;51.146;17.112;2022-12-29T09:14:21;8.30;;;4.20;;
68951;SDS011;56000;51.146;17.112;2022-12-29T09:16:54;7.60;;;4.20;;
68951;SDS011;56000;51.146;17.112;2022-12-29T09:22:16;8.80;;;3.80;;
68951;SDS011;56000;51.146;17.112;2022-12-29T09:24:49;9.30;;;3.70;;
68951;SDS011;56000;51.146;17.112;2022-12-29T09:27:22;8.30;;;3.70;;
68951;SDS011;56000;51.146;17.112;2022-12-29T09:29:55;7.90;;;3.30;;
68951;SDS011;56000;51.146;17.112;2022-12-29T09:32:29;8.80;;;3.90;;
68951;SDS011;56000;51.146;17.112;2022-12-29T09:35:04;8.20;;;3.80;;
68951;SDS011;56000;51.146;17.112;2022-12-29T09:37:38;7.70;;;3.50;;
68951;SDS011;56000;51.146;17.112;2022-12-29T09:40:20;7.30;;;3.90;;
68951;SDS011;56000;51.146;17.112;2022-12-29T09:43:14;5.10;;;3.40;;
68951;SDS011;56000;51.146;17.112;2022-12-29T09:46:16;7.30;;;3.60;;
68951;SDS011;56000;51.146;17.112;2022-12-29T09:49:00;8.90;;;3.70;;
68951;SDS011;56000;51.146;17.112;2022-12-29T09:51:44;8.70;;;3.70;;
68951;SDS011;56000;51.146;17.112;2022-12-29T09:54:27;6.80;;;3.60;;
68951;SDS011;56000;51.146;17.112;2022-12-29T09:57:16;7.40;;;3.00;;
68951;SDS011;56000;51.146;17.112;2022-12-29T09:59:55;9.50;;;3.70;;
68951;SDS011;56000;51.146;17.112;2022-12-29T10:02:42;8.80;;;3.80;;
68951;SDS011;56000;51.146;17.112;2022-12-29T10:05:26;8.10;;;4.30;;
68951;SDS011;56000;51.146;17.112;2022-12-29T10:08:21;9.60;;;3.70;;
68951;SDS011;56000;51.146;17.112;2022-12-29T10:11:06;8.10;;;3.90;;
68951;SDS011;56000;51.146;17.112;2022-12-29T10:14:02;7.30;;;3.60;;
68951;SDS011;56000;51.146;17.112;2022-12-29T10:16:49;6.40;;;3.30;;
68951;SDS011;56000;51.146;17.112;2022-12-29T10:22:35;8.10;;;4.20;;
68951;SDS011;56000;51.146;17.112;2022-12-29T10:25:17;14.60;;;3.90;;
68951;SDS011;56000;51.146;17.112;2022-12-29T10:27:59;9.10;;;4.00;;
68951;SDS011;56000;51.146;17.112;2022-12-29T10:30:35;11.10;;;4.30;;
68951;SDS011;56000;51.146;17.112;2022-12-29T10:33:11;11.30;;;4.50;;
68951;SDS011;56000;51.146;17.112;2022-12-29T10:35:48;7.00;;;3.40;;
68951;SDS011;56000;51.146;17.112;2022-12-29T10:38:25;7.60;;;3.30;;
68951;SDS011;56000;51.146;17.112;2022-12-29T10:41:08;7.70;;;3.40;;
68951;SDS011;56000;51.146;17.112;2022-12-29T10:43:47;5.40;;;2.80;;
68951;SDS011;56000;51.146;17.112;2022-12-29T10:46:24;5.50;;;2.60;;
68951;SDS011;56000;51.146;17.112;2022-12-29T10:49:02;6.30;;;2.50;;
68951;SDS011;56000;51.146;17.112;2022-12-29T10:51:37;4.80;;;2.40;;
68951;SDS011;56000;51.146;17.112;2022-12-29T10:54:15;7.40;;;2.90;;
68951;SDS011;56000;51.146;17.112;2022-12-29T10:56:53;4.70;;;2.40;;
68951;SDS011;56000;51.146;17.112;2022-12-29T10:59:32;6.00;;;2.80;;
68951;SDS011;56000;51.146;17.112;2022-12-29T11:02:25;7.00;;;2.90;;
68951;SDS011;56000;51.146;17.112;2022-12-29T11:05:18;7.90;;;3.10;;
68951;SDS011;56000;51.146;17.112;2022-12-29T11:07:56;3.70;;;2.50;;
68951;SDS011;56000;51.146;17.112;2022-12-29T11:10:38;8.10;;;3.00;;
68951;SDS011;56000;51.146;17.112;2022-12-29T11:13:16;3.80;;;2.20;;
68951;SDS011;56000;51.146;17.112;2022-12-29T11:15:55;6.80;;;2.70;;
68951;SDS011;56000;51.146;17.112;2022-12-29T11:18:34;4.30;;;2.60;;
68951;SDS011;56000;51.146;17.112;2022-12-29T11:21:23;5.50;;;2.20;;
68951;SDS011;56000;51.146;17.112;2022-12-29T11:24:02;5.80;;;2.40;;
68951;SDS011;56000;51.146;17.112;2022-12-29T11:26:37;7.30;;;2.40;;
68951;SDS011;56000;51.146;17.112;2022-12-29T11:29:23;6.10;;;2.50;;
68951;SDS011;56000;51.146;17.112;2022-12-29T11:31:58;3.20;;;2.20;;
68951;SDS011;56000;51.146;17.112;2022-12-29T11:34:41;4.00;;;2.30;;
68951;SDS011;56000;51.146;17.112;2022-12-29T11:37:16;4.40;;;2.40;;
68951;SDS011;56000;51.146;17.112;2022-12-29T11:39:54;4.60;;;2.40;;
68951;SDS011;56000;51.146;17.112;2022-12-29T11:42:34;6.80;;;2.40;;
68951;SDS011;56000;51.146;17.112;2022-12-29T11:45:15;4.50;;;2.60;;
68951;SDS011;56000;51.146;17.112;2022-12-29T11:47:52;8.40;;;2.90;;
68951;SDS011;56000;51.146;17.112;2022-12-29T11:50:28;6.40;;;3.00;;
68951;SDS011;56000;51.146;17.112;2022-12-29T11:53:05;5.70;;;2.50;;
68951;SDS011;56000;51.146;17.112;2022-12-29T11:55:54;7.70;;;2.80;;
68951;SDS011;56000;51.146;17.112;2022-12-29T11:58:33;7.80;;;2.70;;
68951;SDS011;56000;51.146;17.112;2022-12-29T12:01:10;4.30;;;2.50;;
68951;SDS011;56000;51.146;17.112;2022-12-29T12:03:51;5.90;;;2.70;;
68951;SDS011;56000;51.146;17.112;2022-12-29T12:06:32;4.90;;;2.40;;
68951;SDS011;56000;51.146;17.112;2022-12-29T12:09:14;11.20;;;2.80;;
68951;SDS011;56000;51.146;17.112;2022-12-29T12:11:53;6.90;;;2.80;;
68951;SDS011;56000;51.146;17.112;2022-12-29T12:14:31;5.40;;;2.90;;
68951;SDS011;56000;51.146;17.112;2022-12-29T12:17:31;10.90;;;3.40;;
68951;SDS011;56000;51.146;17.112;2022-12-29T12:20:18;6.60;;;2.80;;
68951;SDS011;56000;51.146;17.112;2022-12-29T12:22:58;4.00;;;2.60;;
68951;SDS011;56000;51.146;17.112;2022-12-29T12:25:40;7.70;;;2.90;;
68951;SDS011;56000;51.146;17.112;2022-12-29T12:28:24;6.30;;;2.60;;
68951;SDS011;56000;51.146;17.112;2022-12-29T12:31:10;6.00;;;2.90;;
68951;SDS011;56000;51.146;17.112;2022-12-29T12:33:58;6.70;;;2.90;;
68951;SDS011;56000;51.146;17.112;2022-12-29T12:39:47;5.20;;;3.30;;
68951;SDS011;56000;51.146;17.112;2022-12-29T12:42:38;8.20;;;3.10;;
68951;SDS011;56000;51.146;17.112;2022-12-29T12:45:37;12.80;;;3.50;;
68951;SDS011;56000;51.146;17.112;2022-12-29T12:48:29;7.60;;;3.00;;
68951;SDS011;56000;51.146;17.112;2022-12-29T12:51:17;7.30;;;3.10;;
68951;SDS011;56000;51.146;17.112;2022-12-29T12:54:04;8.30;;;3.30;;
68951;SDS011;56000;51.146;17.112;2022-12-29T12:56:57;6.80;;;3.40;;
68951;SDS011;56000;51.146;17.112;2022-12-29T12:59:47;7.10;;;3.60;;
68951;SDS011;56000;51.146;17.112;2022-12-29T13:02:35;6.50;;;3.70;;
68951;SDS011;56000;51.146;17.112;2022-12-29T13:05:24;7.60;;;3.10;;
68951;SDS011;56000;51.146;17.112;2022-12-29T13:08:13;5.60;;;3.60;;
68951;SDS011;56000;51.146;17.112;2022-12-29T13:11:07;9.90;;;4.00;;
68951;SDS011;56000;51.146;17.112;2022-12-29T13:14:12;14.50;;;3.60;;
68951;SDS011;56000;51.146;17.112;2022-12-29T13:16:59;12.60;;;4.20;;
68951;SDS011;56000;51.146;17.112;2022-12-29T13:19:41;7.50;;;3.40;;
68951;SDS011;56000;51.146;17.112;2022-12-29T13:22:20;13.20;;;4.00;;
68951;SDS011;56000;51.146;17.112;2022-12-29T13:25:08;9.10;;;4.00;;
68951;SDS011;56000;51.146;17.112;2022-12-29T13:27:54;9.70;;;4.10;;
68951;SDS011;56000;51.146;17.112;2022-12-29T13:30:34;5.90;;;3.30;;
68951;SDS011;56000;51.146;17.112;2022-12-29T13:33:16;8.30;;;3.70;;
68951;SDS011;56000;51.146;17.112;2022-12-29T13:36:02;14.50;;;4.20;;
68951;SDS011;56000;51.146;17.112;2022-12-29T13:38:42;6.60;;;3.40;;
68951;SDS011;56000;51.146;17.112;2022-12-29T13:41:21;9.90;;;3.40;;
68951;SDS011;56000;51.146;17.112;2022-12-29T13:44:00;9.10;;;4.10;;
68951;SDS011;56000;51.146;17.112;2022-12-29T13:46:37;11.50;;;4.50;;
68951;SDS011;56000;51.146;17.112;2022-12-29T13:49:15;20.60;;;6.90;;
68951;SDS011;56000;51.146;17.112;2022-12-29T13:51:51;9.20;;;4.00;;
68951;SDS011;56000;51.146;17.112;2022-12-29T13:54:39;10.60;;;4.50;;
68951;SDS011;56000;51.146;17.112;2022-12-29T13:57:18;5.70;;;3.20;;
68951;SDS011;56000;51.146;17.112;2022-12-29T13:59:59;9.00;;;3.30;;
68951;SDS011;56000;51.146;17.112;2022-12-29T14:03:02;9.90;;;3.90;;
68951;SDS011;56000;51.146;17.112;2022-12-29T14:06:18;8.80;;;3.30;;
68951;SDS011;56000;51.146;17.112;2022-12-29T14:08:55;7.20;;;3.70;;
68951;SDS011;56000;51.146;17.112;2022-12-29T14:11:34;6.70;;;3.00;;
68951;SDS011;56000;51.146;17.112;2022-12-29T14:14:14;10.60;;;4.80;;
68951;SDS011;56000;51.146;17.112;2022-12-29T14:16:53;9.40;;;4.60;;
68951;SDS011;56000;51.146;17.112;2022-12-29T14:19:44;8.70;;;4.50;;
68951;SDS011;56000;51.146;17.112;2022-12-29T14:22:26;8.90;;;4.10;;
68951;SDS011;56000;51.146;17.112;2022-12-29T14:25:02;11.10;;;4.70;;
68951;SDS011;56000;51.146;17.112;2022-12-29T14:27:54;8.80;;;4.80;;
68951;SDS011;56000;51.146;17.112;2022-12-29T14:30:53;9.30;;;4.40;;
68951;SDS011;56000;51.146;17.112;2022-12-29T14:33:30;9.60;;;3.70;;
68951;SDS011;56000;51.146;17.112;2022-12-29T14:36:24;7.10;;;4.00;;
68951;SDS011;56000;51.146;17.112;2022-12-29T14:39:04;7.00;;;4.30;;
68951;SDS011;56000;51.146;17.112;2022-12-29T14:42:03;9.50;;;4.20;;
68951;SDS011;56000;51.146;17.112;2022-12-29T14:44:47;8.20;;;4.40;;
68951;SDS011;56000;51.146;17.112;2022-12-29T14:47:25;10.20;;;4.70;;
68951;SDS011;56000;51.146;17.112;2022-12-29T14:50:06;9.50;;;4.60;;
68951;SDS011;56000;51.146;17.112;2022-12-29T14:52:47;12.60;;;4.90;;
68951;SDS011;56000;51.146;17.112;2022-12-29T14:55:37;8.20;;;4.60;;
68951;SDS011;56000;51.146;17.112;2022-12-29T14:58:18;8.10;;;4.50;;
68951;SDS011;56000;51.146;17.112;2022-12-29T15:00:57;8.40;;;4.40;;
68951;SDS011;56000;51.146;17.112;2022-12-29T15:03:32;12.80;;;5.30;;
68951;SDS011;56000;51.146;17.112;2022-12-29T15:06:09;9.00;;;5.20;;
68951;SDS011;56000;51.146;17.112;2022-12-29T15:08:49;8.70;;;5.10;;
68951;SDS011;56000;51.146;17.112;2022-12-29T15:11:28;10.60;;;5.00;;
68951;SDS011;56000;51.146;17.112;2022-12-29T15:14:32;11.90;;;5.80;;
68951;SDS011;56000;51.146;17.112;2022-12-29T15:17:22;10.40;;;5.70;;
68951;SDS011;56000;51.146;17.112;2022-12-29T15:19:59;13.80;;;6.50;;
68951;SDS011;56000;51.146;17.112;2022-12-29T15:22:45;11.70;;;5.40;;
68951;SDS011;56000;51.146;17.112;2022-12-29T15:25:23;12.30;;;5.50;;
68951;SDS011;56000;51.146;17.112;2022-12-29T15:28:00;12.80;;;5.40;;
68951;SDS011;56000;51.146;17.112;2022-12-29T15:30:34;10.40;;;5.70;;
68951;SDS011;56000;51.146;17.112;2022-12-29T15:33:22;13.20;;;5.70;;
68951;SDS011;56000;51.146;17.112;2022-12-29T15:36:02;12.30;;;5.60;;
68951;SDS011;56000;51.146;17.112;2022-12-29T15:38:41;12.10;;;5.90;;
68951;SDS011;56000;51.146;17.112;2022-12-29T15:41:32;13.50;;;6.50;;
68951;SDS011;56000;51.146;17.112;2022-12-29T15:44:25;12.70;;;5.60;;
68951;SDS011;56000;51.146;17.112;2022-12-29T15:47:05;9.50;;;5.10;;
68951;SDS011;56000;51.146;17.112;2022-12-29T15:49:57;11.80;;;6.00;;
68951;SDS011;56000;51.146;17.112;2022-12-29T15:52:34;13.70;;;6.60;;
68951;SDS011;56000;51.146;17.112;2022-12-29T15:55:18;10.20;;;6.00;;
68951;SDS011;56000;51.146;17.112;2022-12-29T15:57:59;12.80;;;6.10;;
68951;SDS011;56000;51.146;17.112;2022-12-29T16:00:35;16.10;;;6.60;;
68951;SDS011;56000;51.146;17.112;2022-12-29T16:03:12;13.00;;;7.00;;